createdAt,value
2019-05-15T00:00:48.017Z,66.02
2019-05-15T00:03:11.132Z,65.73
2019-05-15T00:05:34.636Z,66.46
2019-05-15T00:07:59.292Z,66.42
2019-05-15T00:10:22.961Z,66.76
2019-05-15T00:12:48.621Z,66.81
2019-05-15T00:15:11.963Z,67.12
2019-05-15T00:17:35.490Z,67.13
2019-05-15T00:19:58.998Z,68.13
2019-05-15T00:22:22.519Z,67.12
2019-05-15T00:24:46.022Z,67.79
2019-05-15T00:27:09.548Z,67.07
2019-05-15T00:29:33.056Z,66.71
2019-05-15T00:31:58.859Z,67.42
2019-05-15T00:34:21.858Z,67.14
2019-05-15T00:36:45.403Z,67.37
2019-05-15T00:39:08.933Z,67.68
2019-05-15T00:41:32.477Z,67.96
2019-05-15T00:43:58.340Z,65.92
2019-05-15T00:46:21.354Z,66.49
2019-05-15T00:48:59.030Z,65.91
2019-05-15T00:51:21.831Z,65.73
2019-05-15T00:53:45.338Z,65.63
2019-05-15T00:56:09.095Z,64.78
2019-05-15T00:58:32.664Z,65.32
2019-05-15T01:00:56.169Z,64.71
2019-05-15T01:03:19.708Z,65.12
2019-05-15T01:05:43.220Z,65.66
2019-05-15T01:08:08.239Z,65.40
2019-05-15T01:10:31.901Z,65.64
2019-05-15T01:12:55.478Z,65.98
2019-05-15T01:15:19.097Z,66.04
2019-05-15T01:17:42.627Z,67.54
2019-05-15T01:20:08.515Z,67.78
2019-05-15T01:22:31.944Z,67.71
2019-05-15T01:24:55.439Z,67.08
2019-05-15T01:27:19.044Z,67.97
2019-05-15T01:29:45.155Z,67.51
2019-05-15T01:32:08.420Z,68.13
2019-05-15T01:34:32.095Z,68.41
2019-05-15T01:36:55.607Z,69.54
2019-05-15T01:39:19.517Z,69.17
2019-05-15T01:41:43.051Z,70.14
2019-05-15T01:44:08.653Z,70.12
2019-05-15T01:46:31.825Z,69.74
2019-05-15T01:48:55.402Z,69.28
2019-05-15T01:51:18.923Z,69.90
2019-05-15T01:53:42.442Z,70.88
2019-05-15T01:56:08.195Z,70.21
2019-05-15T01:58:31.201Z,70.60
2019-05-15T02:00:54.707Z,71.69
2019-05-15T02:03:18.543Z,72.64
2019-05-15T02:05:42.130Z,71.03
2019-05-15T02:08:08.027Z,72.73
2019-05-15T02:10:30.908Z,72.13
2019-05-15T02:12:54.459Z,72.22
2019-05-15T02:15:19.026Z,71.91
2019-05-15T02:17:42.695Z,71.53
2019-05-15T02:20:08.342Z,72.58
2019-05-15T02:22:32.163Z,72.08
2019-05-15T02:24:58.977Z,72.48
2019-05-15T02:27:21.559Z,72.43
2019-05-15T02:29:45.093Z,72.48
2019-05-15T02:32:10.216Z,72.28
2019-05-15T02:34:33.922Z,73.76
2019-05-15T02:37:00.127Z,72.80
2019-05-15T02:39:22.690Z,73.40
2019-05-15T02:41:49.007Z,74.08
2019-05-15T02:44:11.605Z,73.09
2019-05-15T02:46:35.101Z,74.36
2019-05-15T02:48:59.250Z,73.67
2019-05-15T02:51:22.931Z,74.15
2019-05-15T02:53:49.718Z,73.59
2019-05-15T02:56:11.695Z,73.66
2019-05-15T02:58:35.234Z,72.62
2019-05-15T03:00:59.437Z,72.41
2019-05-15T03:03:23.104Z,72.23
2019-05-15T03:05:49.628Z,71.15
2019-05-15T03:08:11.968Z,70.97
2019-05-15T03:10:35.496Z,70.83
2019-05-15T03:13:00.145Z,71.32
2019-05-15T03:15:23.855Z,71.42
2019-05-15T03:17:49.490Z,71.46
2019-05-15T03:20:13.413Z,72.26
2019-05-15T03:22:39.815Z,72.96
2019-05-15T03:25:02.273Z,73.32
2019-05-15T03:27:25.837Z,73.09
2019-05-15T03:29:49.591Z,73.42
2019-05-15T03:32:25.467Z,73.28
2019-05-15T03:34:46.940Z,73.69
2019-05-15T03:37:04.311Z,73.49
2019-05-15T03:39:29.675Z,74.18
2019-05-15T03:41:53.485Z,73.87
2019-05-15T03:44:19.904Z,74.06
2019-05-15T03:46:43.506Z,74.56
2019-05-15T03:49:08.660Z,75.00
2019-05-15T03:51:32.406Z,75.25
2019-05-15T03:53:55.978Z,76.01
2019-05-15T03:56:19.571Z,74.93
2019-05-15T03:58:43.170Z,74.73
2019-05-15T04:01:27.266Z,74.58
2019-05-15T04:03:32.086Z,73.91
2019-05-15T04:05:55.619Z,73.32
2019-05-15T04:08:19.632Z,73.60
2019-05-15T04:10:43.436Z,72.45
2019-05-15T04:13:09.411Z,72.48
2019-05-15T04:15:32.302Z,71.63
2019-05-15T04:17:55.799Z,71.27
2019-05-15T04:20:20.461Z,71.48
2019-05-15T04:22:43.969Z,71.52
2019-05-15T04:25:09.788Z,71.38
2019-05-15T04:27:33.814Z,70.45
2019-05-15T04:29:59.276Z,70.17
2019-05-15T04:32:22.581Z,69.06
2019-05-15T04:34:48.883Z,68.66
2019-05-15T04:37:11.827Z,68.29
2019-05-15T04:39:35.332Z,67.04
2019-05-15T04:41:59.116Z,65.64
2019-05-15T04:44:22.645Z,65.18
2019-05-15T04:46:49.539Z,63.73
2019-05-15T04:49:11.514Z,64.65
2019-05-15T04:51:35.044Z,63.04
2019-05-15T04:53:58.778Z,62.79
2019-05-15T04:56:22.267Z,62.85
2019-05-15T04:58:45.838Z,63.61
2019-05-15T05:01:09.746Z,63.21
2019-05-15T05:03:34.585Z,62.24
2019-05-15T05:05:59.205Z,62.12
2019-05-15T05:08:23.009Z,60.17
2019-05-15T05:10:48.860Z,59.63
2019-05-15T05:13:11.906Z,59.36
2019-05-15T05:15:35.402Z,58.50
2019-05-15T05:17:59.960Z,58.02
2019-05-15T05:20:23.476Z,57.20
2019-05-15T05:22:48.330Z,56.87
2019-05-15T05:25:11.985Z,55.64
2019-05-15T05:27:38.024Z,54.77
2019-05-15T05:30:00.774Z,55.03
2019-05-15T05:32:32.010Z,53.35
2019-05-15T05:34:49.716Z,54.29
2019-05-15T05:37:14.392Z,53.23
2019-05-15T05:39:39.516Z,53.73
2019-05-15T05:42:03.295Z,52.86
2019-05-15T05:44:29.043Z,53.48
2019-05-15T05:46:52.066Z,52.88
2019-05-15T05:49:15.582Z,53.03
2019-05-15T05:51:39.149Z,52.99
2019-05-15T05:54:02.658Z,52.80
2019-05-15T05:56:28.614Z,52.95
2019-05-15T05:58:51.517Z,52.70
2019-05-15T06:01:15.503Z,51.61
2019-05-15T06:03:39.217Z,51.74
2019-05-15T06:06:02.795Z,52.27
2019-05-15T06:08:28.247Z,51.90
2019-05-15T06:10:51.625Z,50.93
2019-05-15T06:13:15.180Z,51.79
2019-05-15T06:15:39.810Z,51.26
2019-05-15T06:18:03.404Z,51.31
2019-05-15T06:20:28.273Z,51.23
2019-05-15T06:22:52.002Z,51.85
2019-05-15T06:25:19.526Z,52.24
2019-05-15T06:27:40.913Z,52.49
2019-05-15T06:30:08.613Z,54.55
2019-05-15T06:32:31.425Z,53.70
2019-05-15T06:34:54.953Z,53.93
2019-05-15T06:37:19.676Z,53.64
2019-05-15T06:39:43.365Z,53.79
2019-05-15T06:42:08.767Z,53.06
2019-05-15T06:44:32.187Z,52.23
2019-05-15T06:46:55.702Z,52.28
2019-05-15T06:49:19.252Z,51.90
2019-05-15T06:51:42.762Z,51.85
2019-05-15T06:54:08.563Z,51.55
2019-05-15T06:56:31.629Z,51.06
2019-05-15T06:58:55.200Z,50.11
2019-05-15T07:01:19.080Z,50.83
2019-05-15T07:03:42.727Z,50.58
2019-05-15T07:06:09.072Z,49.76
2019-05-15T07:08:31.507Z,49.40
2019-05-15T07:10:55.029Z,49.81
2019-05-15T07:13:18.641Z,50.49
2019-05-15T07:15:42.099Z,50.73
2019-05-15T07:18:05.653Z,49.82
2019-05-15T07:20:29.307Z,49.70
2019-05-15T07:22:52.893Z,48.21
2019-05-15T07:25:18.883Z,47.47
2019-05-15T07:27:42.178Z,46.66
2019-05-15T07:30:07.755Z,48.16
2019-05-15T07:32:31.346Z,49.61
2019-05-15T07:34:54.882Z,49.03
2019-05-15T07:37:19.070Z,48.92
2019-05-15T07:39:42.730Z,48.36
2019-05-15T07:42:08.442Z,49.11
2019-05-15T07:44:31.593Z,48.96
2019-05-15T07:46:55.112Z,48.56
2019-05-15T07:49:18.662Z,48.62
2019-05-15T07:51:42.229Z,47.80
2019-05-15T07:54:05.858Z,46.89
2019-05-15T07:56:29.363Z,48.33
2019-05-15T07:58:53.005Z,47.58
2019-05-15T08:01:18.558Z,48.09
2019-05-15T08:03:56.433Z,47.25
2019-05-15T08:06:09.112Z,46.97
2019-05-15T08:08:32.652Z,46.73
2019-05-15T08:10:57.967Z,46.44
2019-05-15T08:13:21.625Z,46.95
2019-05-15T08:15:45.229Z,45.26
2019-05-15T08:20:34.028Z,44.03
2019-05-15T08:22:58.187Z,42.69
2019-05-15T08:25:32.234Z,42.63
2019-05-15T08:26:05.723Z,45.15
2019-05-15T08:27:48.457Z,41.74
2019-05-15T08:30:14.520Z,42.83
2019-05-15T08:32:38.902Z,44.51
2019-05-15T08:35:02.732Z,43.72
2019-05-15T08:37:26.258Z,43.29
2019-05-15T08:39:51.604Z,43.31
2019-05-15T08:42:15.151Z,43.25
2019-05-15T08:44:38.863Z,43.80
2019-05-15T08:47:02.468Z,42.14
2019-05-15T08:49:28.256Z,43.07
2019-05-15T08:51:51.307Z,40.61
2019-05-15T08:54:14.838Z,41.08
2019-05-15T08:56:39.411Z,40.06
2019-05-15T08:59:03.222Z,39.39
2019-05-15T09:01:28.790Z,38.13
2019-05-15T09:03:52.010Z,36.83
2019-05-15T09:06:18.610Z,37.04
2019-05-15T09:08:40.809Z,34.31
2019-05-15T09:11:04.344Z,33.55
2019-05-15T09:13:29.266Z,34.49
2019-05-15T09:15:53.119Z,34.18
2019-05-15T09:18:19.968Z,33.35
2019-05-15T09:20:41.987Z,34.05
2019-05-15T09:23:05.519Z,33.13
2019-05-15T09:25:29.045Z,35.58
2019-05-15T09:27:52.567Z,35.91
2019-05-15T09:30:18.266Z,36.45
2019-05-15T09:32:42.007Z,36.46
2019-05-15T09:35:08.527Z,34.51
2019-05-15T09:37:33.758Z,35.77
2019-05-15T09:39:58.405Z,36.21
2019-05-15T09:42:23.099Z,37.30
2019-05-15T09:44:48.629Z,37.56
2019-05-15T09:47:11.967Z,35.82
2019-05-15T09:49:35.536Z,34.28
2019-05-15T09:51:59.480Z,34.76
2019-05-15T09:54:25.570Z,34.70
2019-05-15T09:56:49.512Z,34.74
2019-05-15T09:59:13.230Z,33.10
2019-05-15T10:01:39.457Z,33.45
2019-05-15T10:04:02.131Z,34.27
2019-05-15T10:06:25.672Z,34.15
2019-05-15T10:08:49.294Z,35.16
2019-05-15T10:11:12.819Z,33.46
2019-05-15T10:13:38.412Z,34.04
2019-05-15T10:16:01.592Z,34.60
2019-05-15T10:18:25.114Z,34.86
2019-05-15T10:20:49.001Z,34.95
2019-05-15T10:23:12.655Z,33.58
2019-05-15T10:25:38.759Z,33.62
2019-05-15T10:28:01.575Z,34.91
2019-05-15T10:30:28.423Z,35.02
2019-05-15T10:32:51.943Z,35.09
2019-05-15T10:35:25.764Z,35.11
2019-05-15T10:37:41.217Z,35.07
2019-05-15T10:40:09.870Z,34.09
2019-05-15T10:42:33.393Z,33.59
2019-05-15T10:44:58.859Z,33.16
2019-05-15T10:47:22.183Z,33.36
2019-05-15T10:49:45.692Z,34.25
2019-05-15T10:52:11.372Z,33.10
2019-05-15T10:54:34.554Z,32.88
2019-05-15T10:57:00.530Z,33.21
2019-05-15T10:59:23.470Z,33.72
2019-05-15T11:01:48.801Z,33.89
2019-05-15T11:04:12.617Z,32.29
2019-05-15T11:06:38.343Z,32.49
2019-05-15T11:09:01.655Z,32.43
2019-05-15T11:11:25.492Z,32.84
2019-05-15T11:13:49.080Z,31.87
2019-05-15T11:16:12.620Z,32.96
2019-05-15T11:18:39.394Z,31.31
2019-05-15T11:21:02.455Z,31.17
2019-05-15T11:23:25.979Z,30.82
2019-05-15T11:25:49.674Z,30.58
2019-05-15T11:28:13.501Z,29.78
2019-05-15T11:30:39.241Z,29.63
2019-05-15T11:33:03.370Z,28.80
2019-05-15T11:35:28.539Z,30.08
2019-05-15T11:37:56.600Z,29.63
2019-05-15T11:40:18.848Z,31.43
2019-05-15T11:42:42.641Z,30.09
2019-05-15T11:45:08.935Z,30.75
2019-05-15T11:47:32.562Z,29.81
2019-05-15T11:49:58.327Z,31.80
2019-05-15T11:52:21.351Z,30.66
2019-05-15T11:54:44.855Z,31.08
2019-05-15T11:57:08.676Z,31.19
2019-05-15T11:59:32.288Z,31.16
2019-05-15T12:01:57.925Z,32.14
2019-05-15T12:04:30.387Z,30.84
2019-05-15T12:06:58.309Z,31.03
2019-05-15T12:09:11.950Z,29.61
2019-05-15T12:11:37.261Z,29.53
2019-05-15T12:14:00.711Z,30.60
2019-05-15T12:16:24.287Z,31.49
2019-05-15T12:18:48.332Z,30.74
2019-05-15T12:21:13.162Z,32.47
2019-05-15T12:23:38.896Z,32.00
2019-05-15T12:26:02.484Z,32.24
2019-05-15T12:28:29.287Z,32.83
2019-05-15T12:30:51.257Z,32.73
2019-05-15T12:33:14.843Z,33.30
2019-05-15T12:35:39.611Z,33.27
2019-05-15T12:38:03.881Z,32.53
2019-05-15T12:59:50.601Z,35.38
2019-05-15T13:02:14.115Z,36.37
2019-05-15T13:04:38.956Z,36.04
2019-05-15T13:07:13.022Z,35.75
2019-05-15T13:09:27.885Z,35.43
2019-05-15T13:11:51.420Z,35.19
2019-05-15T13:14:14.958Z,37.06
2019-05-15T13:16:39.014Z,37.23
2019-05-15T13:19:02.728Z,36.94
2019-05-15T13:21:26.312Z,36.85
2019-05-15T13:23:49.864Z,35.40
2019-05-15T13:26:23.398Z,35.95
2019-05-15T13:28:38.773Z,36.36
2019-05-15T13:31:02.411Z,35.94
2019-05-15T13:33:26.010Z,35.64
2019-05-15T13:35:49.595Z,36.60
2019-05-15T13:38:13.140Z,38.20
2019-05-15T13:40:38.985Z,37.64
2019-05-15T13:43:01.974Z,37.99
2019-05-15T13:45:25.535Z,37.95
2019-05-15T13:47:49.047Z,38.37
2019-05-15T13:50:13.019Z,38.09
2019-05-15T13:52:39.045Z,38.16
2019-05-15T13:55:01.934Z,37.73
2019-05-15T13:57:25.473Z,38.02
2019-05-15T13:59:49.013Z,37.95
2019-05-15T14:02:15.691Z,39.00
2019-05-15T14:04:39.208Z,38.68
2019-05-15T14:07:02.735Z,37.73
2019-05-15T14:09:32.474Z,37.45
2019-05-15T14:11:51.532Z,38.36
2019-05-15T14:14:15.074Z,38.87
2019-05-15T14:16:38.759Z,39.00
2019-05-15T14:19:02.408Z,39.66
2019-05-15T14:21:28.368Z,39.06
2019-05-15T14:23:51.232Z,39.65
2019-05-15T14:26:22.407Z,39.76
2019-05-15T14:28:40.012Z,39.60
2019-05-15T14:31:03.920Z,39.47
2019-05-15T14:33:29.286Z,40.34
2019-05-15T14:35:52.723Z,40.14
2019-05-15T14:38:18.080Z,41.36
2019-05-15T14:40:41.529Z,41.04
2019-05-15T14:43:08.535Z,41.11
2019-05-15T14:45:31.191Z,40.72
2019-05-15T14:47:58.206Z,40.83
2019-05-15T14:50:21.941Z,40.41
2019-05-15T14:52:47.995Z,40.83
2019-05-15T14:55:11.855Z,40.72
2019-05-15T14:57:35.359Z,40.87
2019-05-15T14:59:58.905Z,40.48
2019-05-15T15:02:22.422Z,40.39
2019-05-15T15:04:48.397Z,39.92
2019-05-15T15:07:11.472Z,41.22
2019-05-15T15:09:35.047Z,41.72
2019-05-15T15:11:58.580Z,41.64
2019-05-15T15:14:22.088Z,41.44
2019-05-15T15:16:45.694Z,42.56
2019-05-15T15:19:09.352Z,42.66
2019-05-15T15:21:32.896Z,42.73
2019-05-15T15:23:58.658Z,42.18
2019-05-15T15:26:21.681Z,42.49
2019-05-15T15:28:45.227Z,42.48
2019-05-15T15:31:08.788Z,42.62
2019-05-15T15:33:32.298Z,42.42
2019-05-15T15:35:57.963Z,42.02
2019-05-15T15:38:35.329Z,43.59
2019-05-15T15:40:48.108Z,44.13
2019-05-15T15:43:11.730Z,43.51
2019-05-15T15:45:35.578Z,44.61
2019-05-15T15:47:59.080Z,44.26
2019-05-15T15:50:24.292Z,43.96
2019-05-15T15:52:49.026Z,44.22
2019-05-15T15:55:12.882Z,44.18
2019-05-15T15:57:39.269Z,43.90
2019-05-15T16:00:01.722Z,43.87
2019-05-15T16:02:25.260Z,43.76
2019-05-15T16:04:48.811Z,44.25
2019-05-15T16:07:12.420Z,43.44
2019-05-15T16:09:36.009Z,44.11
2019-05-15T16:11:59.544Z,45.63
2019-05-15T16:14:23.247Z,44.72
2019-05-15T16:16:48.624Z,44.80
2019-05-15T16:19:12.038Z,44.74
2019-05-15T16:21:35.585Z,44.15
2019-05-15T16:23:59.090Z,45.21
2019-05-15T16:26:22.639Z,44.96
2019-05-15T16:28:46.155Z,44.91
2019-05-15T16:31:09.683Z,43.81
2019-05-15T16:33:33.232Z,43.55
2019-05-15T16:35:58.092Z,44.67
2019-05-15T16:38:21.725Z,45.17
2019-05-15T16:40:45.248Z,44.53
2019-05-15T16:43:09.006Z,43.77
2019-05-15T16:45:32.525Z,44.91
2019-05-15T16:47:58.543Z,44.86
2019-05-15T16:50:21.438Z,45.07
2019-05-15T16:52:44.977Z,44.54
2019-05-15T16:55:09.739Z,44.85
2019-05-15T16:57:33.352Z,43.97
2019-05-15T16:59:58.643Z,44.17
2019-05-15T17:02:22.148Z,44.56
2019-05-15T17:04:46.011Z,43.55
2019-05-15T17:07:09.784Z,43.13
2019-05-15T17:09:33.677Z,43.18
2019-05-15T17:11:58.244Z,45.25
2019-05-15T17:14:21.855Z,43.59
2019-05-15T17:16:47.964Z,43.60
2019-05-15T17:19:10.951Z,43.57
2019-05-15T17:21:34.648Z,42.36
2019-05-15T17:23:58.368Z,42.17
2019-05-15T17:26:21.867Z,42.25
2019-05-15T17:28:45.641Z,41.62
2019-05-15T17:31:09.371Z,41.81
2019-05-15T17:33:33.575Z,41.71
2019-05-15T17:35:58.059Z,41.86
2019-05-15T17:38:21.874Z,41.15
2019-05-15T17:40:49.064Z,40.83
2019-05-15T17:43:17.651Z,41.84
2019-05-15T17:45:41.303Z,41.93
2019-05-15T17:48:08.911Z,41.92
2019-05-15T17:50:45.090Z,40.71
2019-05-15T17:52:58.651Z,42.25
2019-05-15T17:55:22.627Z,41.71
2019-05-15T17:57:56.688Z,42.11
2019-05-15T18:00:15.425Z,42.29
2019-05-15T18:02:39.315Z,42.15
2019-05-15T18:05:03.370Z,42.03
2019-05-15T18:07:28.182Z,42.73
2019-05-15T18:09:54.503Z,43.69
2019-05-15T18:12:17.051Z,42.60
2019-05-15T18:14:41.673Z,42.87
2019-05-15T18:17:05.286Z,42.80
2019-05-15T18:19:28.811Z,43.08
2019-05-15T18:21:52.405Z,43.43
2019-05-15T18:24:18.320Z,44.73
2019-05-15T18:26:41.205Z,44.11
2019-05-15T18:29:04.872Z,44.14
2019-05-15T18:31:28.753Z,43.90
2019-05-15T18:33:53.734Z,45.15
2019-05-15T18:36:17.567Z,43.98
2019-05-15T18:38:42.140Z,44.16
2019-05-15T18:41:06.075Z,44.87
2019-05-15T18:43:29.608Z,45.16
2019-05-15T18:45:53.108Z,45.28
2019-05-15T18:48:18.385Z,44.29
2019-05-15T18:50:42.051Z,45.22
2019-05-15T18:53:05.653Z,45.60
2019-05-15T18:55:29.182Z,46.29
2019-05-15T18:57:52.718Z,44.90
2019-05-15T19:00:18.375Z,46.29
2019-05-15T19:02:42.175Z,46.37
2019-05-15T19:05:08.156Z,45.95
2019-05-15T19:07:31.958Z,46.87
2019-05-15T19:09:55.574Z,46.26
2019-05-15T19:12:19.308Z,46.88
2019-05-15T19:14:43.114Z,46.71
2019-05-15T19:17:08.247Z,47.12
2019-05-15T19:19:31.957Z,47.47
2019-05-15T19:21:55.476Z,47.31
2019-05-15T19:24:19.280Z,47.74
2019-05-15T19:26:43.237Z,47.77
2019-05-15T19:29:08.290Z,47.71
2019-05-15T19:31:31.959Z,47.24
2019-05-15T19:33:55.566Z,47.13
2019-05-15T19:36:19.167Z,46.82
2019-05-15T19:38:43.171Z,47.68
2019-05-15T19:41:09.543Z,48.65
2019-05-15T19:43:32.592Z,48.80
2019-05-15T19:45:58.343Z,47.00
2019-05-15T19:48:21.453Z,48.32
2019-05-15T19:50:44.957Z,47.63
2019-05-15T19:53:08.659Z,48.56
2019-05-15T19:55:32.248Z,48.36
2019-05-15T19:57:55.898Z,48.79
2019-05-15T20:00:20.455Z,47.94
2019-05-15T20:02:43.999Z,48.00
2019-05-15T20:05:09.203Z,48.96
2019-05-15T20:07:33.507Z,48.54
2019-05-15T20:09:58.441Z,47.77
2019-05-15T20:12:22.110Z,49.04
2019-05-15T20:14:45.645Z,49.87
2019-05-15T20:17:09.207Z,50.97
2019-05-15T20:19:32.886Z,50.10
2019-05-15T20:21:58.296Z,51.90
2019-05-15T20:24:21.875Z,52.20
2019-05-15T20:26:48.420Z,53.72
2019-05-15T20:29:12.295Z,51.61
2019-05-15T20:31:35.802Z,54.66
2019-05-15T20:34:05.631Z,56.56
2019-05-15T20:36:24.744Z,55.46
2019-05-15T20:38:48.520Z,53.48
2019-05-15T20:41:12.444Z,53.42
2019-05-15T20:43:38.286Z,54.27
2019-05-15T20:46:01.514Z,55.06
2019-05-15T20:48:25.390Z,56.03
2019-05-15T20:50:49.078Z,54.79
2019-05-15T20:53:12.704Z,54.77
2019-05-15T20:55:38.075Z,56.55
2019-05-15T20:58:01.700Z,55.46
2019-05-15T21:00:25.494Z,54.30
2019-05-15T21:02:49.399Z,55.54
2019-05-15T21:05:13.322Z,55.07
2019-05-15T21:07:40.049Z,55.30
2019-05-15T21:10:02.768Z,55.80
2019-05-15T21:12:29.882Z,54.43
2019-05-15T21:14:52.754Z,56.39
2019-05-15T21:17:19.626Z,57.26
2019-05-15T21:19:41.519Z,56.60
2019-05-15T21:22:05.082Z,56.72
2019-05-15T21:24:28.625Z,56.87
2019-05-15T21:26:52.131Z,56.98
2019-05-15T21:29:15.685Z,56.69
2019-05-15T21:31:39.981Z,55.86
2019-05-15T21:34:03.885Z,56.87
2019-05-15T21:36:28.287Z,56.79
2019-05-15T21:38:52.669Z,57.40
2019-05-15T21:41:18.634Z,56.95
2019-05-15T21:43:41.407Z,56.77
2019-05-15T21:46:05.025Z,56.65
2019-05-15T21:48:28.957Z,56.82
2019-05-15T21:50:52.701Z,57.31
2019-05-15T21:53:17.627Z,57.86
2019-05-15T21:55:41.518Z,57.50
2019-05-15T21:58:05.157Z,58.32
2019-05-15T22:00:38.388Z,58.07
2019-05-15T22:03:02.242Z,58.03
2019-05-15T22:05:25.849Z,57.77
2019-05-15T22:07:51.308Z,58.24
2019-05-15T22:10:15.084Z,57.43
2019-05-15T22:12:38.658Z,57.09
2019-05-15T22:15:02.261Z,57.46
2019-05-15T22:17:29.097Z,57.40
2019-05-15T22:19:51.573Z,56.89
2019-05-15T22:22:15.169Z,57.04
2019-05-15T22:24:38.776Z,57.43
2019-05-15T22:27:02.427Z,57.21
2019-05-15T22:29:28.869Z,57.36
2019-05-15T22:31:52.187Z,58.59
2019-05-15T22:34:15.692Z,57.48
2019-05-15T22:36:39.306Z,58.30
2019-05-15T22:39:03.465Z,58.17
2019-05-15T22:41:28.463Z,57.47
2019-05-15T22:43:52.188Z,61.14
2019-05-15T22:46:15.730Z,61.39
2019-05-15T22:48:39.235Z,62.11
2019-05-15T22:51:03.011Z,61.26
2019-05-15T22:53:28.810Z,61.87
2019-05-15T22:55:51.958Z,62.61
2019-05-15T22:58:15.460Z,62.13
2019-05-15T23:00:39.340Z,60.54
2019-05-15T23:03:02.924Z,61.36
2019-05-15T23:05:30.985Z,63.49
2019-05-15T23:07:51.713Z,64.54
2019-05-15T23:10:16.790Z,64.30
2019-05-15T23:12:40.364Z,63.77
2019-05-15T23:15:04.729Z,63.73
2019-05-15T23:17:28.266Z,62.94
2019-05-15T23:19:51.780Z,64.50
2019-05-15T23:22:15.321Z,62.27
2019-05-15T23:24:38.878Z,63.10
2019-05-15T23:27:02.405Z,63.21
2019-05-15T23:29:25.916Z,63.46
2019-05-15T23:31:49.442Z,63.61
2019-05-15T23:34:12.943Z,63.81
2019-05-15T23:36:37.887Z,64.10
2019-05-15T23:39:01.665Z,64.58
2019-05-15T23:41:25.209Z,64.02
2019-05-15T23:43:48.718Z,64.10
2019-05-15T23:46:12.255Z,64.00
2019-05-15T23:48:38.014Z,64.31
2019-05-15T23:51:01.033Z,63.78
2019-05-15T23:53:24.556Z,61.77
2019-05-15T23:55:48.080Z,59.52
2019-05-15T23:58:11.585Z,58.78
